サンクトペテルブルク の空港の天気 - METARとTAF

プルコヴォ空港(サンクトペテルブルグ) ( ULLI / LED ) - ロシア サンクトペテルブルク
飛行場実況気象(Metar)
観測時間12/11 10:30 MSK (12/11 07:30 UTC)
風向・風速東北東 2m/s
視程4200m
天気現象弱い雪
全天の8割程度の雲 雲底高度 150m
全天を覆う雲 雲底高度 520m
気温-1℃
湿度93%
気圧1010hPa
METARULLI 110730Z 07002MPS 4200 -SN BKN005 OVC017 M01/M02 Q1010 R10R/510350 R10L/550345 NOSIG RMK OBST OBSC
過去の天気等 Google飛行場航空写真 Wunderground天気予報

過去48時間のMETAR

飛行場予報(TAF)
発表時間: 12/11 07:57 MSK (12/11 04:57 UTC)
予報対象時間: 11日9時 MSK ~ 12日9時 MSK
風向・風速北東 3m/s
視程3100m
天気現象弱い雪
全天の8割程度の雲 雲底高度 210m
全天の8割程度の雲 雲底高度 610m
11日9時 MSK ~ 11日24時 MSK に一時的に
視程1500m
天気現象弱いしゅう雪雨 もや
全天の8割程度の雲 雲底高度 120m
全天の8割程度の積乱雲 雲底高度 460m
12日0時 MSK ~ 12日1時 MSK に徐々に
風向・風速北 3m/s 瞬間風速 8m/s
12日1時 MSK ~ 12日9時 MSK に一時的に
視程2100m
天気現象弱いしゅう雪雨
全天の8割程度の雲 雲底高度 150m
全天の8割程度の積乱雲 雲底高度 460m
TAF ULLI 110457Z 1106/1206 04003MPS 3100 -SN BKN007 BKN020
TEMPO 1106/1121 1500 -SHSNRA BR BKN004 BKN015CB
BECMG 1121/1122 01003G08MPS
TEMPO 1122/1206 2100 -SHSNRA BKN005 BKN015CB